createdAt,value
2023-02-22T00:01:50.771Z,16.70
2023-02-22T00:04:21.112Z,14.93
2023-02-22T00:06:49.845Z,15.93
2023-02-22T00:09:20.611Z,15.73
2023-02-22T00:11:48.462Z,15.77
2023-02-22T00:14:17.999Z,15.50
2023-02-22T00:16:47.045Z,16.63
2023-02-22T00:19:14.479Z,16.63
2023-02-22T00:21:41.844Z,17.93
2023-02-22T00:24:23.117Z,15.33
2023-02-22T00:26:51.247Z,16.00
2023-02-22T00:29:18.655Z,15.93
2023-02-22T00:31:47.430Z,15.50
2023-02-22T00:34:16.338Z,15.43
2023-02-22T00:36:46.058Z,17.47
2023-02-22T00:39:13.459Z,15.30
2023-02-22T00:41:41.104Z,14.27
2023-02-22T00:44:08.588Z,13.70
2023-02-22T00:46:36.095Z,13.67
2023-02-22T00:49:05.240Z,13.27
2023-02-22T00:51:33.858Z,14.13
2023-02-22T00:54:01.369Z,14.20
2023-02-22T00:56:29.107Z,13.80
2023-02-22T00:58:56.718Z,13.80
2023-02-22T01:01:24.561Z,13.97
2023-02-22T01:03:52.372Z,13.20
2023-02-22T01:06:22.651Z,13.57
2023-02-22T01:08:50.525Z,13.53
2023-02-22T01:11:18.555Z,13.97
2023-02-22T01:13:46.246Z,13.83
2023-02-22T01:16:13.994Z,13.03
2023-02-22T01:18:41.512Z,12.00
2023-02-22T01:21:08.940Z,12.63
2023-02-22T01:23:37.721Z,12.80
2023-02-22T01:26:06.079Z,13.53
2023-02-22T01:28:33.703Z,12.30
2023-02-22T01:31:02.815Z,12.63
2023-02-22T01:33:30.377Z,12.03
2023-02-22T01:35:58.234Z,12.70
2023-02-22T01:38:25.638Z,12.93
2023-02-22T01:40:54.558Z,12.40
2023-02-22T01:43:23.351Z,12.00
2023-02-22T01:45:53.999Z,11.80
2023-02-22T01:48:24.828Z,11.27
2023-02-22T01:50:55.131Z,12.13
2023-02-22T01:53:24.525Z,11.13
2023-02-22T01:55:52.557Z,10.83
2023-02-22T01:58:22.064Z,11.10
2023-02-22T02:00:49.496Z,10.90
2023-02-22T02:03:19.240Z,11.70
2023-02-22T02:05:46.859Z,10.13
2023-02-22T02:08:17.980Z,10.87
2023-02-22T02:10:45.405Z,11.00
2023-02-22T02:13:12.872Z,10.33
2023-02-22T02:15:41.780Z,10.40
2023-02-22T02:18:11.657Z,11.43
2023-02-22T02:20:43.259Z,11.13
2023-02-22T02:23:18.556Z,10.23
2023-02-22T02:26:00.528Z,11.10
2023-02-22T02:28:34.425Z,10.43
2023-02-22T02:31:20.400Z,10.10
2023-02-22T02:33:52.000Z,10.37
2023-02-22T02:36:20.793Z,10.67
2023-02-22T02:38:51.715Z,9.83
2023-02-22T02:41:21.687Z,10.17
2023-02-22T02:43:53.010Z,10.80
2023-02-22T02:46:23.975Z,10.23
2023-02-22T02:48:56.878Z,10.03
2023-02-22T02:51:25.910Z,10.33
2023-02-22T02:53:53.894Z,10.13
2023-02-22T02:56:23.349Z,9.73
2023-02-22T02:58:52.880Z,9.47
2023-02-22T03:01:24.652Z,9.47
2023-02-22T03:04:06.821Z,8.87
2023-02-22T03:06:44.205Z,8.70
2023-02-22T03:09:15.344Z,8.97
2023-02-22T03:11:48.331Z,9.30
2023-02-22T03:14:17.903Z,8.80
2023-02-22T03:16:47.248Z,9.40
2023-02-22T03:19:20.368Z,8.80
2023-02-22T03:21:52.602Z,8.97
2023-02-22T03:24:22.543Z,8.87
2023-02-22T03:26:53.598Z,9.53
2023-02-22T03:29:22.610Z,9.37
2023-02-22T03:31:53.368Z,8.77
2023-02-22T03:34:23.884Z,9.07
2023-02-22T03:36:55.926Z,9.00
2023-02-22T03:39:30.837Z,8.60
2023-02-22T03:41:59.349Z,9.00
2023-02-22T03:44:28.786Z,8.93
2023-02-22T03:46:57.658Z,8.73
2023-02-22T03:49:31.037Z,8.80
2023-02-22T03:51:59.208Z,8.40
2023-02-22T03:54:27.417Z,8.13
2023-02-22T03:56:56.962Z,7.93
2023-02-22T03:59:27.449Z,8.20
2023-02-22T04:01:55.109Z,8.30
2023-02-22T04:04:24.035Z,8.10
2023-02-22T04:06:53.205Z,8.13
2023-02-22T04:09:21.256Z,7.97
2023-02-22T04:11:48.810Z,8.77
2023-02-22T04:14:16.516Z,8.80
2023-02-22T04:16:44.048Z,8.23
2023-02-22T04:19:11.672Z,8.70
2023-02-22T04:21:39.133Z,8.23
2023-02-22T04:24:08.180Z,7.80
2023-02-22T04:26:35.630Z,7.57
2023-02-22T04:29:04.253Z,7.83
2023-02-22T04:31:31.777Z,8.60
2023-02-22T04:33:59.245Z,8.07
2023-02-22T04:36:27.174Z,7.70
2023-02-22T04:38:55.057Z,7.97
2023-02-22T04:41:25.486Z,7.40
2023-02-22T04:43:53.058Z,7.60
2023-02-22T04:46:20.589Z,7.80
2023-02-22T04:48:48.008Z,8.10
2023-02-22T04:51:15.927Z,7.73
2023-02-22T04:53:43.498Z,7.60
2023-02-22T04:56:10.980Z,7.27
2023-02-22T04:58:39.809Z,6.70
2023-02-22T05:01:08.150Z,6.40
2023-02-22T05:03:38.418Z,6.90
2023-02-22T05:06:06.084Z,7.40
2023-02-22T05:08:33.473Z,6.57
2023-02-22T05:11:01.225Z,7.53
2023-02-22T05:13:28.704Z,7.07
2023-02-22T05:15:57.588Z,7.50
2023-02-22T05:18:25.054Z,8.13
2023-02-22T05:20:52.593Z,7.97
2023-02-22T05:23:20.063Z,8.23
2023-02-22T05:25:47.617Z,8.67
2023-02-22T05:28:16.720Z,8.30
2023-02-22T05:30:44.260Z,8.13
2023-02-22T05:33:13.177Z,7.80
2023-02-22T05:35:40.632Z,7.93
2023-02-22T05:38:08.507Z,8.13
2023-02-22T05:40:36.349Z,7.70
2023-02-22T05:43:03.849Z,7.70
2023-02-22T05:45:31.268Z,7.53
2023-02-22T05:47:58.879Z,7.87
2023-02-22T05:50:27.672Z,7.50
2023-02-22T05:52:55.318Z,8.03
2023-02-22T05:55:23.926Z,8.73
2023-02-22T05:57:51.408Z,7.77
2023-02-22T06:00:23.191Z,7.60
2023-02-22T06:02:54.586Z,7.57
2023-02-22T06:05:22.170Z,7.37
2023-02-22T06:07:51.053Z,7.87
2023-02-22T06:10:18.741Z,8.07
2023-02-22T06:12:46.268Z,7.20
2023-02-22T06:15:13.670Z,7.83
2023-02-22T06:17:41.844Z,8.20
2023-02-22T06:20:10.145Z,8.20
2023-02-22T06:22:37.660Z,7.67
2023-02-22T06:25:06.974Z,7.70
2023-02-22T06:27:34.970Z,7.73
2023-02-22T06:30:03.794Z,7.20
2023-02-22T06:32:31.198Z,8.10
2023-02-22T06:34:58.680Z,7.13
2023-02-22T06:37:26.049Z,7.50
2023-02-22T06:39:53.439Z,8.27
2023-02-22T06:42:22.248Z,7.97
2023-02-22T06:44:51.510Z,7.80
2023-02-22T06:47:19.211Z,7.83
2023-02-22T06:49:46.660Z,8.57
2023-02-22T06:52:14.023Z,7.87
2023-02-22T06:54:41.432Z,8.00
2023-02-22T06:57:10.173Z,8.77
2023-02-22T06:59:38.991Z,9.83
2023-02-22T07:02:06.366Z,8.80
2023-02-22T07:04:35.102Z,7.77
2023-02-22T07:07:03.556Z,8.90
2023-02-22T07:09:31.187Z,7.77
2023-02-22T07:11:58.608Z,8.23
2023-02-22T07:14:26.015Z,8.20
2023-02-22T07:16:54.813Z,8.70
2023-02-22T07:19:22.210Z,8.77
2023-02-22T07:21:50.825Z,9.27
2023-02-22T07:24:18.242Z,9.03
2023-02-22T07:26:45.672Z,9.43
2023-02-22T07:29:13.111Z,9.43
2023-02-22T07:31:40.606Z,9.70
2023-02-22T07:34:09.363Z,8.70
2023-02-22T07:36:36.875Z,9.20
2023-02-22T07:39:04.354Z,9.67
2023-02-22T07:41:31.769Z,9.63
2023-02-22T07:43:59.195Z,11.13
2023-02-22T07:46:26.589Z,10.53
2023-02-22T07:48:54.020Z,10.80
2023-02-22T07:51:22.820Z,10.70
2023-02-22T07:53:50.246Z,11.37
2023-02-22T07:56:18.196Z,10.90
2023-02-22T07:58:45.635Z,11.10
2023-02-22T08:01:13.070Z,11.50
2023-02-22T08:03:40.601Z,12.03
2023-02-22T08:06:08.642Z,11.30
2023-02-22T08:08:37.536Z,11.37
2023-02-22T08:11:05.735Z,11.30
2023-02-22T08:13:33.375Z,11.57
2023-02-22T08:16:00.893Z,11.53
2023-02-22T08:18:28.422Z,11.07
2023-02-22T08:20:56.064Z,10.80
2023-02-22T08:23:25.219Z,11.20
2023-02-22T08:25:54.189Z,11.50
2023-02-22T08:28:23.520Z,12.10
2023-02-22T08:30:51.368Z,12.70
2023-02-22T08:33:19.724Z,14.50
2023-02-22T08:35:49.452Z,14.60
2023-02-22T08:38:17.874Z,15.40
2023-02-22T08:40:45.321Z,14.70
2023-02-22T08:43:14.440Z,16.07
2023-02-22T08:45:41.957Z,15.30
2023-02-22T08:48:09.392Z,15.60
2023-02-22T08:50:38.077Z,15.40
2023-02-22T08:53:06.255Z,15.03
2023-02-22T08:55:34.468Z,14.40
2023-02-22T08:58:03.117Z,15.10
2023-02-22T09:00:33.759Z,14.10
2023-02-22T09:03:01.433Z,15.03
2023-02-22T09:05:31.207Z,14.07
2023-02-22T09:07:59.029Z,14.90
2023-02-22T09:10:28.089Z,15.03
2023-02-22T09:12:56.381Z,13.73
2023-02-22T09:15:24.596Z,14.53
2023-02-22T09:17:53.534Z,13.70
2023-02-22T09:20:21.987Z,14.00
2023-02-22T09:22:50.010Z,13.20
2023-02-22T09:25:18.064Z,13.67
2023-02-22T09:27:47.896Z,13.07
2023-02-22T09:30:19.714Z,16.20
2023-02-22T09:32:47.388Z,12.70
2023-02-22T09:35:16.237Z,14.43
2023-02-22T09:37:45.038Z,13.00
2023-02-22T09:40:17.535Z,12.00
2023-02-22T09:42:49.557Z,13.70
2023-02-22T09:45:18.960Z,11.30
2023-02-22T09:47:48.109Z,12.47
2023-02-22T09:50:18.034Z,12.17
2023-02-22T09:52:53.919Z,11.07
2023-02-22T09:55:28.779Z,11.13
2023-02-22T09:57:57.984Z,11.50
2023-02-22T10:00:32.401Z,11.43
2023-02-22T10:03:06.901Z,11.50
2023-02-22T10:05:39.668Z,10.90
2023-02-22T10:08:12.670Z,11.33
2023-02-22T10:10:41.793Z,11.03
2023-02-22T10:13:14.553Z,10.27
2023-02-22T10:15:47.451Z,10.50
2023-02-22T10:18:35.648Z,10.57
2023-02-22T10:21:09.100Z,11.23
2023-02-22T10:23:39.553Z,10.17
2023-02-22T10:26:14.749Z,9.60
2023-02-22T10:28:44.171Z,9.90
2023-02-22T10:31:17.968Z,10.63
2023-02-22T10:33:48.339Z,9.43
2023-02-22T10:36:19.956Z,9.53
2023-02-22T10:38:52.159Z,9.67
2023-02-22T10:41:24.436Z,8.43
2023-02-22T10:43:51.975Z,8.73
2023-02-22T10:46:21.843Z,8.60
2023-02-22T10:48:51.351Z,7.97
2023-02-22T10:51:20.142Z,7.87
2023-02-22T10:53:54.267Z,6.80
2023-02-22T10:56:22.268Z,6.90
2023-02-22T10:58:51.261Z,7.70
2023-02-22T11:01:20.362Z,7.13
2023-02-22T11:03:57.062Z,7.10
2023-02-22T11:06:27.646Z,7.00
2023-02-22T11:09:04.894Z,6.60
2023-02-22T11:11:32.264Z,6.43
2023-02-22T11:14:00.577Z,6.30
2023-02-22T11:16:29.764Z,6.00
2023-02-22T11:19:01.648Z,6.70
2023-02-22T11:21:31.331Z,6.10
2023-02-22T11:24:02.782Z,5.83
2023-02-22T11:26:30.320Z,5.50
2023-02-22T11:28:57.813Z,5.50
2023-02-22T11:31:27.103Z,5.37
2023-02-22T11:36:37.870Z,5.80
2023-02-22T11:39:08.587Z,5.50
2023-02-22T11:41:36.070Z,5.70
2023-02-22T11:44:24.684Z,5.60
2023-02-22T11:46:55.640Z,5.63
2023-02-22T11:49:24.580Z,6.03
2023-02-22T11:52:00.976Z,6.07
2023-02-22T11:54:40.156Z,5.43
2023-02-22T11:57:25.506Z,5.53
2023-02-22T11:59:57.848Z,5.10
2023-02-22T12:02:32.161Z,5.23
2023-02-22T12:05:08.063Z,6.43
2023-02-22T12:07:44.756Z,6.00
2023-02-22T12:10:22.768Z,6.87
2023-02-22T12:12:57.082Z,7.00
2023-02-22T12:15:29.285Z,6.30
2023-02-22T12:18:00.786Z,7.50
2023-02-22T12:20:30.939Z,5.60
2023-02-22T12:23:03.768Z,6.10
2023-02-22T12:25:34.453Z,5.53
2023-02-22T12:28:15.637Z,5.80
2023-02-22T12:30:53.777Z,6.20
2023-02-22T12:33:24.776Z,6.50
2023-02-22T12:35:53.356Z,6.10
2023-02-22T12:38:25.259Z,5.80
2023-02-22T12:40:57.073Z,5.67
2023-02-22T12:43:27.797Z,6.50
2023-02-22T12:45:57.356Z,5.70
2023-02-22T12:48:31.418Z,5.43
2023-02-22T12:51:00.840Z,5.20
2023-02-22T12:53:31.976Z,5.37
2023-02-22T12:56:01.381Z,5.33
2023-02-22T12:58:31.326Z,5.30
2023-02-22T13:01:01.275Z,5.47
2023-02-22T13:03:31.674Z,6.00
2023-02-22T13:06:07.381Z,5.43
2023-02-22T13:08:38.570Z,5.63
2023-02-22T13:11:14.963Z,6.20
2023-02-22T13:13:47.040Z,5.13
2023-02-22T13:16:23.142Z,5.80
2023-02-22T13:18:53.971Z,5.57
2023-02-22T13:21:23.877Z,5.60
2023-02-22T13:23:55.249Z,6.10
2023-02-22T13:26:25.812Z,5.93
2023-02-22T13:28:59.146Z,5.63
2023-02-22T13:31:37.654Z,5.80
2023-02-22T13:34:25.908Z,5.37
2023-02-22T13:37:01.874Z,5.70
2023-02-22T13:39:48.200Z,5.63
2023-02-22T13:42:22.485Z,5.67
2023-02-22T13:45:10.211Z,5.83
2023-02-22T13:48:02.482Z,5.80
2023-02-22T13:50:39.349Z,5.10
2023-02-22T13:53:09.828Z,6.60
2023-02-22T13:55:38.979Z,5.77
2023-02-22T13:58:08.756Z,6.17
2023-02-22T14:00:46.961Z,6.40
2023-02-22T14:03:35.918Z,6.00
2023-02-22T14:06:04.170Z,5.90
2023-02-22T14:08:44.578Z,6.07
2023-02-22T14:11:30.717Z,6.10
2023-02-22T14:14:12.965Z,6.43
2023-02-22T14:16:40.399Z,6.60
2023-02-22T14:19:14.391Z,5.90
2023-02-22T14:21:56.161Z,5.77
2023-02-22T14:24:23.616Z,6.30
2023-02-22T14:26:56.285Z,5.97
2023-02-22T14:29:25.515Z,6.60
2023-02-22T14:32:07.539Z,5.90
2023-02-22T14:34:53.352Z,6.60
2023-02-22T14:37:21.860Z,5.83
2023-02-22T14:39:51.408Z,7.00
2023-02-22T14:42:22.266Z,6.87
2023-02-22T14:44:53.663Z,6.97
2023-02-22T14:47:26.554Z,6.20
2023-02-22T14:49:54.800Z,6.90
2023-02-22T14:52:24.072Z,6.70
2023-02-22T14:54:59.677Z,6.97
2023-02-22T14:57:30.701Z,6.97
2023-02-22T15:00:10.765Z,7.20
2023-02-22T15:02:41.631Z,7.43
2023-02-22T15:05:13.640Z,7.10
2023-02-22T15:07:41.067Z,6.83
2023-02-22T15:10:17.857Z,6.80
2023-02-22T15:12:52.109Z,6.30
2023-02-22T15:15:22.764Z,6.43
2023-02-22T15:17:53.820Z,7.03
2023-02-22T15:20:21.363Z,7.03
2023-02-22T15:22:50.061Z,6.87
2023-02-22T15:25:17.529Z,7.20
2023-02-22T15:27:47.831Z,6.90
2023-02-22T15:30:20.371Z,6.80
2023-02-22T15:33:03.112Z,6.90
2023-02-22T15:35:32.789Z,6.43
2023-02-22T15:38:01.441Z,6.93
2023-02-22T15:40:33.063Z,7.27
2023-02-22T15:43:02.193Z,6.20
2023-02-22T15:45:30.113Z,7.23
2023-02-22T15:47:59.773Z,6.90
2023-02-22T15:50:28.126Z,7.10
2023-02-22T15:52:58.959Z,6.30
2023-02-22T15:55:27.958Z,6.43
2023-02-22T15:57:56.179Z,6.23
2023-02-22T16:00:25.162Z,6.90
2023-02-22T16:02:52.726Z,6.60
2023-02-22T16:05:21.584Z,6.60
2023-02-22T16:07:50.663Z,6.73
2023-02-22T16:10:26.572Z,6.43
2023-02-22T16:13:22.180Z,6.20
2023-02-22T16:16:01.835Z,6.40
2023-02-22T16:18:31.529Z,5.80
2023-02-22T16:21:01.581Z,5.60
2023-02-22T16:23:29.776Z,4.97
2023-02-22T16:26:05.267Z,4.90
2023-02-22T16:28:35.484Z,5.07
2023-02-22T16:31:03.366Z,4.63
2023-02-22T16:33:33.702Z,5.10
2023-02-22T16:36:08.051Z,4.60
2023-02-22T16:38:38.438Z,4.47
2023-02-22T16:41:06.683Z,4.20
2023-02-22T16:43:34.918Z,4.30
2023-02-22T16:46:02.907Z,4.67
2023-02-22T16:48:31.168Z,4.43
2023-02-22T16:51:00.899Z,4.40
2023-02-22T16:53:31.785Z,4.43
2023-02-22T16:56:02.618Z,4.80
2023-02-22T16:58:33.744Z,5.03
2023-02-22T17:01:01.210Z,5.03
2023-02-22T17:03:29.753Z,4.67
2023-02-22T17:05:57.812Z,4.77
2023-02-22T17:08:25.288Z,4.40
2023-02-22T17:10:56.926Z,4.40
2023-02-22T17:13:26.994Z,5.00
2023-02-22T17:15:55.368Z,4.37
2023-02-22T17:18:23.840Z,4.30
2023-02-22T17:20:51.772Z,4.20
2023-02-22T17:23:19.463Z,4.40
2023-02-22T17:25:49.772Z,4.47
2023-02-22T17:28:18.579Z,4.57
2023-02-22T17:30:48.812Z,4.40
2023-02-22T17:33:16.974Z,4.63
2023-02-22T17:35:46.876Z,4.43
2023-02-22T17:38:18.274Z,4.73
2023-02-22T17:40:48.006Z,4.10
2023-02-22T17:43:16.313Z,4.27
2023-02-22T17:45:46.070Z,4.60
2023-02-22T17:48:14.189Z,4.40
2023-02-22T17:50:42.633Z,4.33
2023-02-22T17:53:11.057Z,4.23
2023-02-22T17:55:39.076Z,3.83
2023-02-22T17:58:06.672Z,3.90
2023-02-22T18:00:36.459Z,4.23
2023-02-22T18:03:06.259Z,4.33
2023-02-22T18:05:34.674Z,4.10
2023-02-22T18:08:02.045Z,4.27
2023-02-22T18:10:29.478Z,4.47
2023-02-22T18:12:57.086Z,4.00
2023-02-22T18:15:28.217Z,4.73
2023-02-22T18:17:56.291Z,4.07
2023-02-22T18:20:30.988Z,4.27
2023-02-22T18:22:58.648Z,4.30
2023-02-22T18:25:26.216Z,4.20
2023-02-22T18:27:55.009Z,4.10
2023-02-22T18:30:23.834Z,4.30
2023-02-22T18:32:51.325Z,4.63
2023-02-22T18:35:18.815Z,4.43
2023-02-22T18:37:47.589Z,4.90
2023-02-22T18:40:15.043Z,5.30
2023-02-22T18:42:42.421Z,5.27
2023-02-22T18:45:09.984Z,5.37
2023-02-22T18:47:42.137Z,4.97
2023-02-22T18:50:10.068Z,4.57
2023-02-22T18:52:44.745Z,4.73
2023-02-22T18:55:14.517Z,4.57
2023-02-22T18:57:42.499Z,4.83
2023-02-22T19:00:11.486Z,4.10
2023-02-22T19:02:38.960Z,5.03
2023-02-22T19:05:07.477Z,5.17
2023-02-22T19:07:34.916Z,4.73
2023-02-22T19:10:02.531Z,4.40
2023-02-22T19:12:31.446Z,5.00
2023-02-22T19:14:59.596Z,4.50
2023-02-22T19:17:28.605Z,5.23
2023-02-22T19:19:56.081Z,5.43
2023-02-22T19:22:26.056Z,5.53
2023-02-22T19:24:54.500Z,5.23
2023-02-22T19:27:22.075Z,5.03
2023-02-22T19:29:50.910Z,5.20
2023-02-22T19:32:18.451Z,5.60
2023-02-22T19:34:46.144Z,5.20
2023-02-22T19:37:13.809Z,5.07
2023-02-22T19:39:42.268Z,5.13
2023-02-22T19:42:10.700Z,5.03
2023-02-22T19:44:38.393Z,5.30
2023-02-22T19:47:09.296Z,5.80
2023-02-22T19:49:37.763Z,5.90
2023-02-22T19:52:06.412Z,5.70
2023-02-22T19:54:34.241Z,6.33
2023-02-22T19:57:01.864Z,7.13
2023-02-22T19:59:29.446Z,6.63
2023-02-22T20:01:57.810Z,7.17
2023-02-22T20:04:30.603Z,7.60
2023-02-22T20:06:58.375Z,8.60
2023-02-22T20:09:29.879Z,9.20
2023-02-22T20:11:57.737Z,8.70
2023-02-22T20:14:27.433Z,9.47
2023-02-22T20:16:55.717Z,9.67
2023-02-22T20:19:23.607Z,9.10
2023-02-22T20:21:53.101Z,9.33
2023-02-22T20:24:20.544Z,10.20
2023-02-22T20:26:48.355Z,9.50
2023-02-22T20:29:16.632Z,9.37
2023-02-22T20:31:44.436Z,9.27
2023-02-22T20:34:12.532Z,9.43
2023-02-22T20:36:41.383Z,8.27
2023-02-22T20:39:13.315Z,8.27
2023-02-22T20:41:41.752Z,8.10
2023-02-22T20:44:10.087Z,8.07
2023-02-22T20:46:37.673Z,9.10
2023-02-22T20:49:07.151Z,10.43
2023-02-22T20:51:35.285Z,11.27
2023-02-22T20:54:03.000Z,12.17
2023-02-22T20:56:32.756Z,11.00
2023-02-22T20:59:00.862Z,10.77
2023-02-22T21:01:28.543Z,11.53
2023-02-22T21:04:00.404Z,12.57
2023-02-22T21:06:28.652Z,12.27
2023-02-22T21:08:57.060Z,11.83
2023-02-22T21:11:25.019Z,11.73
2023-02-22T21:13:54.212Z,12.70
2023-02-22T21:16:23.216Z,13.77
2023-02-22T21:18:50.991Z,13.63
2023-02-22T21:21:18.594Z,14.90
2023-02-22T21:23:49.644Z,14.90
2023-02-22T21:26:18.302Z,15.33
2023-02-22T21:28:51.180Z,14.87
2023-02-22T21:31:21.118Z,15.37
2023-02-22T21:33:49.479Z,14.40
2023-02-22T21:36:16.872Z,16.47
2023-02-22T21:38:45.129Z,16.50
2023-02-22T21:41:12.598Z,16.87
2023-02-22T21:43:40.075Z,17.57
2023-02-22T21:46:10.645Z,17.73
2023-02-22T21:48:41.016Z,17.80
2023-02-22T21:51:09.128Z,17.40
2023-02-22T21:53:36.678Z,17.83
2023-02-22T21:56:04.856Z,16.83
2023-02-22T21:58:32.321Z,18.33
2023-02-22T22:01:05.807Z,17.70
2023-02-22T22:03:33.298Z,17.90
2023-02-22T22:06:02.006Z,17.20
2023-02-22T22:08:32.049Z,17.37
2023-02-22T22:10:59.483Z,16.63
2023-02-22T22:13:28.098Z,17.80
2023-02-22T22:15:55.718Z,17.33
2023-02-22T22:18:23.138Z,17.30
2023-02-22T22:20:51.869Z,16.90
2023-02-22T22:23:20.661Z,17.53
2023-02-22T22:25:51.097Z,18.53
2023-02-22T22:28:18.485Z,16.70
2023-02-22T22:30:45.933Z,17.07
2023-02-22T22:33:13.528Z,17.83
2023-02-22T22:35:41.943Z,19.80
2023-02-22T22:38:09.786Z,21.80
2023-02-22T22:40:38.878Z,21.07
2023-02-22T22:43:06.978Z,20.90
2023-02-22T22:45:34.477Z,21.10
2023-02-22T22:48:02.272Z,21.53
2023-02-22T22:50:29.834Z,21.80
2023-02-22T22:52:58.113Z,22.00
2023-02-22T22:55:25.548Z,23.60
2023-02-22T22:57:54.334Z,23.40
2023-02-22T23:00:31.979Z,24.07
2023-02-22T23:02:59.665Z,22.27
2023-02-22T23:05:29.227Z,24.20
2023-02-22T23:07:57.648Z,24.30
2023-02-22T23:10:28.047Z,23.20
2023-02-22T23:12:57.324Z,21.90
2023-02-22T23:15:25.735Z,22.97
2023-02-22T23:17:56.015Z,21.80
2023-02-22T23:20:26.322Z,22.80
2023-02-22T23:22:53.977Z,24.10
2023-02-22T23:25:21.697Z,25.50
2023-02-22T23:27:49.310Z,25.77
2023-02-22T23:30:18.829Z,27.53
2023-02-22T23:32:47.473Z,26.77
2023-02-22T23:35:15.608Z,28.43
2023-02-22T23:37:46.178Z,29.20
2023-02-22T23:40:16.973Z,29.27
2023-02-22T23:42:47.805Z,30.53
2023-02-22T23:45:22.638Z,29.80
2023-02-22T23:47:55.810Z,30.80
2023-02-22T23:50:24.219Z,29.77
2023-02-22T23:52:56.863Z,30.70
2023-02-22T23:55:25.245Z,30.00
2023-02-22T23:57:52.665Z,29.40
